createdAt,value
2023-05-18T00:01:56.706Z,87.00
2023-05-18T00:04:26.747Z,87.00
2023-05-18T00:07:03.513Z,86.90
2023-05-18T00:09:34.387Z,87.00
2023-05-18T00:12:13.968Z,86.90
2023-05-18T00:14:43.394Z,86.80
2023-05-18T00:17:10.199Z,86.80
2023-05-18T00:19:40.701Z,86.80
2023-05-18T00:24:48.934Z,86.60
2023-05-18T00:27:15.924Z,86.70
2023-05-18T00:29:42.719Z,86.70
2023-05-18T00:32:09.550Z,87.30
2023-05-18T00:34:36.731Z,86.70
2023-05-18T00:37:03.581Z,86.70
2023-05-18T00:39:30.583Z,86.80
2023-05-18T00:41:57.438Z,86.80
2023-05-18T00:44:24.307Z,86.80
2023-05-18T00:46:54.147Z,86.90
2023-05-18T00:49:20.959Z,87.00
2023-05-18T00:51:48.026Z,87.00
2023-05-18T00:54:14.884Z,87.10
2023-05-18T00:56:42.485Z,87.00
2023-05-18T00:59:12.324Z,87.10
2023-05-18T01:01:43.902Z,87.80
2023-05-18T01:04:14.318Z,87.40
2023-05-18T01:06:42.085Z,87.50
2023-05-18T01:09:12.236Z,87.70
2023-05-18T01:12:06.139Z,87.80
2023-05-18T01:14:52.429Z,87.90
2023-05-18T01:17:41.144Z,87.90
2023-05-18T01:20:17.225Z,88.00
2023-05-18T01:22:56.571Z,87.90
2023-05-18T01:25:53.859Z,88.00
2023-05-18T01:28:31.649Z,88.20
2023-05-18T01:30:58.910Z,88.40
2023-05-18T01:33:26.005Z,88.50
2023-05-18T01:35:53.204Z,88.60
2023-05-18T01:38:24.227Z,88.70
2023-05-18T01:41:37.351Z,88.90
2023-05-18T01:44:20.194Z,89.10
2023-05-18T01:47:04.471Z,89.30
2023-05-18T01:49:35.112Z,89.40
2023-05-18T01:52:11.829Z,89.40
2023-05-18T01:54:41.534Z,89.60
2023-05-18T01:57:08.408Z,89.70
2023-05-18T01:59:35.315Z,89.80
2023-05-18T02:02:02.642Z,90.00
2023-05-18T02:04:29.560Z,90.00
2023-05-18T02:06:58.830Z,90.00
2023-05-18T02:09:25.898Z,90.00
2023-05-18T02:11:52.839Z,90.10
2023-05-18T02:14:19.688Z,90.20
2023-05-18T02:16:47.460Z,90.20
2023-05-18T02:19:14.968Z,90.20
2023-05-18T02:21:43.666Z,90.20
2023-05-18T02:24:10.885Z,90.30
2023-05-18T02:26:37.792Z,90.30
2023-05-18T02:29:09.575Z,90.40
2023-05-18T02:31:36.896Z,90.60
2023-05-18T02:34:04.072Z,90.40
2023-05-18T02:36:37.483Z,90.40
2023-05-18T02:39:05.233Z,90.50
2023-05-18T02:41:32.662Z,90.40
2023-05-18T02:43:59.559Z,90.50
2023-05-18T02:46:26.739Z,90.50
2023-05-18T02:48:53.815Z,90.60
2023-05-18T02:51:23.049Z,90.60
2023-05-18T02:53:50.764Z,90.70
2023-05-18T02:56:18.063Z,90.70
2023-05-18T02:58:45.051Z,90.70
2023-05-18T03:01:15.008Z,90.70
2023-05-18T03:03:44.468Z,90.70
2023-05-18T03:06:11.367Z,90.70
2023-05-18T03:08:38.396Z,90.70
2023-05-18T03:11:05.252Z,90.80
2023-05-18T03:13:32.101Z,90.80
2023-05-18T03:15:59.061Z,90.90
2023-05-18T03:18:26.032Z,90.90
2023-05-18T03:20:53.433Z,90.90
2023-05-18T03:23:20.518Z,90.90
2023-05-18T03:25:47.462Z,90.90
2023-05-18T03:28:25.463Z,90.90
2023-05-18T03:31:37.594Z,90.90
2023-05-18T03:34:04.734Z,91.00
2023-05-18T03:36:31.681Z,91.00
2023-05-18T03:38:58.592Z,91.00
2023-05-18T03:41:25.606Z,91.00
2023-05-18T03:43:52.495Z,91.00
2023-05-18T03:46:23.699Z,91.10
2023-05-18T03:48:51.500Z,91.10
2023-05-18T03:51:18.413Z,91.20
2023-05-18T03:53:45.394Z,91.20
2023-05-18T03:56:13.362Z,91.20
2023-05-18T03:58:42.434Z,91.20
2023-05-18T04:01:09.524Z,91.20
2023-05-18T04:03:36.488Z,91.30
2023-05-18T04:06:03.537Z,91.30
2023-05-18T04:08:30.608Z,91.30
2023-05-18T04:10:57.718Z,91.40
2023-05-18T04:13:27.791Z,91.40
2023-05-18T04:15:55.290Z,91.50
2023-05-18T04:18:25.165Z,91.50
2023-05-18T04:20:52.939Z,91.60
2023-05-18T04:23:20.168Z,91.60
2023-05-18T04:25:47.364Z,91.90
2023-05-18T04:28:14.382Z,91.60
2023-05-18T04:30:41.571Z,91.60
2023-05-18T04:33:08.680Z,91.70
2023-05-18T04:35:36.141Z,91.70
2023-05-18T04:38:13.422Z,91.70
2023-05-18T04:40:42.979Z,91.80
2023-05-18T04:43:10.868Z,91.90
2023-05-18T04:45:37.892Z,91.90
2023-05-18T04:48:05.623Z,92.00
2023-05-18T04:50:38.355Z,92.00
2023-05-18T04:53:07.798Z,92.00
2023-05-18T04:55:35.498Z,92.10
2023-05-18T04:58:06.250Z,92.10
2023-05-18T05:00:44.406Z,92.20
2023-05-18T05:03:11.629Z,92.20
2023-05-18T05:05:57.003Z,92.20
2023-05-18T05:08:23.941Z,92.30
2023-05-18T05:10:51.052Z,92.30
2023-05-18T05:13:17.899Z,92.40
2023-05-18T05:15:44.833Z,92.40
2023-05-18T05:18:11.917Z,92.40
2023-05-18T05:20:38.819Z,92.50
2023-05-18T05:23:05.944Z,92.50
2023-05-18T05:25:34.133Z,92.50
2023-05-18T05:28:01.045Z,92.50
2023-05-18T05:30:31.419Z,92.50
2023-05-18T05:32:58.486Z,92.60
2023-05-18T05:35:28.457Z,92.60
2023-05-18T05:38:16.675Z,92.60
2023-05-18T05:40:43.792Z,92.70
2023-05-18T05:43:10.688Z,92.70
2023-05-18T05:45:37.580Z,92.70
2023-05-18T05:48:04.737Z,92.80
2023-05-18T05:50:35.143Z,92.80
2023-05-18T05:53:03.266Z,92.80
2023-05-18T05:55:30.451Z,92.80
2023-05-18T05:57:57.494Z,92.80
2023-05-18T06:00:24.649Z,92.70
2023-05-18T06:02:51.776Z,92.70
2023-05-18T06:05:21.051Z,92.70
2023-05-18T06:07:48.152Z,92.70
2023-05-18T06:10:15.202Z,92.90
2023-05-18T06:12:42.018Z,92.70
2023-05-18T06:15:09.466Z,92.70
2023-05-18T06:17:36.387Z,92.70
2023-05-18T06:20:04.727Z,92.60
2023-05-18T06:22:31.832Z,92.50
2023-05-18T06:24:59.240Z,92.50
2023-05-18T06:27:26.500Z,92.40
2023-05-18T06:29:55.887Z,92.40
2023-05-18T06:32:22.904Z,92.30
2023-05-18T06:34:50.736Z,92.20
2023-05-18T06:37:18.263Z,92.20
2023-05-18T06:39:45.046Z,92.10
2023-05-18T06:42:11.840Z,92.00
2023-05-18T06:44:38.788Z,92.00
2023-05-18T06:47:06.353Z,91.90
2023-05-18T06:49:33.283Z,91.80
2023-05-18T06:52:00.462Z,91.70
2023-05-18T06:54:30.898Z,91.60
2023-05-18T06:56:57.937Z,91.50
2023-05-18T06:59:24.797Z,91.50
2023-05-18T07:01:51.809Z,91.40
2023-05-18T07:04:19.643Z,91.20
2023-05-18T07:06:46.795Z,91.10
2023-05-18T07:09:13.937Z,91.00
2023-05-18T07:11:40.889Z,91.00
2023-05-18T07:14:07.769Z,90.90
2023-05-18T07:16:35.561Z,90.80
2023-05-18T07:19:03.819Z,90.70
2023-05-18T07:21:31.519Z,90.50
2023-05-18T07:24:03.604Z,90.30
2023-05-18T07:26:30.661Z,90.10
2023-05-18T07:28:57.619Z,90.00
2023-05-18T07:31:24.734Z,89.80
2023-05-18T07:33:51.615Z,89.50
2023-05-18T07:36:18.507Z,89.20
2023-05-18T07:38:47.527Z,88.90
2023-05-18T07:41:23.226Z,88.50
2023-05-18T07:43:51.249Z,87.80
2023-05-18T07:46:18.736Z,87.60
2023-05-18T07:48:46.410Z,87.00
2023-05-18T07:51:23.044Z,86.10
2023-05-18T07:53:50.314Z,84.80
2023-05-18T07:56:18.102Z,84.50
2023-05-18T07:58:45.265Z,84.80
2023-05-18T08:01:14.795Z,84.00
2023-05-18T08:03:42.067Z,83.60
2023-05-18T08:06:09.007Z,83.20
2023-05-18T08:08:38.058Z,82.80
2023-05-18T08:11:05.763Z,82.30
2023-05-18T08:13:33.973Z,82.10
2023-05-18T08:16:11.157Z,82.00
2023-05-18T08:18:39.151Z,81.80
2023-05-18T08:21:11.935Z,81.60
2023-05-18T08:23:40.366Z,81.40
2023-05-18T08:26:11.850Z,81.20
2023-05-18T08:28:40.235Z,80.80
2023-05-18T08:31:07.350Z,80.80
2023-05-18T08:33:34.396Z,80.90
2023-05-18T08:36:01.619Z,81.00
2023-05-18T08:38:28.504Z,80.80
2023-05-18T08:41:05.323Z,80.60
2023-05-18T08:43:33.668Z,80.40
2023-05-18T08:46:22.572Z,80.20
2023-05-18T08:48:51.387Z,80.10
2023-05-18T08:51:20.346Z,80.20
2023-05-18T08:53:54.284Z,80.10
2023-05-18T08:56:29.500Z,80.10
2023-05-18T08:58:57.010Z,79.90
2023-05-18T09:01:28.500Z,79.70
2023-05-18T09:04:02.776Z,79.50
2023-05-18T09:06:30.145Z,79.40
2023-05-18T09:09:04.465Z,79.30
2023-05-18T09:11:32.334Z,79.10
2023-05-18T09:13:59.903Z,79.00
2023-05-18T09:16:27.011Z,78.90
2023-05-18T09:18:54.027Z,78.80
2023-05-18T09:21:21.233Z,78.20
2023-05-18T09:23:48.279Z,78.00
2023-05-18T09:26:18.205Z,78.20
2023-05-18T09:28:45.484Z,78.80
2023-05-18T09:31:17.518Z,77.80
2023-05-18T09:33:47.540Z,77.10
2023-05-18T09:36:18.225Z,77.30
2023-05-18T09:38:46.788Z,77.20
2023-05-18T09:41:17.625Z,77.30
2023-05-18T09:43:46.066Z,76.90
2023-05-18T09:46:13.769Z,76.50
2023-05-18T09:48:47.744Z,76.10
2023-05-18T09:51:17.023Z,75.60
2023-05-18T09:53:57.297Z,76.00
2023-05-18T09:56:25.079Z,75.70
2023-05-18T09:58:52.433Z,75.70
2023-05-18T10:01:19.435Z,75.40
2023-05-18T10:03:48.627Z,75.00
2023-05-18T10:06:17.742Z,74.80
2023-05-18T10:08:45.732Z,74.60
2023-05-18T10:11:12.820Z,74.40
2023-05-18T10:13:45.050Z,74.20
2023-05-18T10:16:12.523Z,74.20
2023-05-18T10:18:39.481Z,74.10
2023-05-18T10:21:07.929Z,73.90
2023-05-18T10:23:36.410Z,73.70
2023-05-18T10:26:07.707Z,73.50
2023-05-18T10:28:41.415Z,72.90
2023-05-18T10:31:08.628Z,72.90
2023-05-18T10:33:36.705Z,73.00
2023-05-18T10:36:10.086Z,72.70
2023-05-18T10:38:41.276Z,72.20
2023-05-18T10:41:08.476Z,72.00
2023-05-18T10:43:35.598Z,71.90
2023-05-18T10:46:02.898Z,71.70
2023-05-18T10:48:30.362Z,71.20
2023-05-18T10:50:58.108Z,71.20
2023-05-18T10:53:30.053Z,70.90
2023-05-18T10:55:56.985Z,70.30
2023-05-18T10:58:27.551Z,70.10
2023-05-18T11:00:59.019Z,69.80
2023-05-18T11:03:27.258Z,69.80
2023-05-18T11:06:05.034Z,69.70
2023-05-18T11:08:31.944Z,69.10
2023-05-18T11:11:04.160Z,68.60
2023-05-18T11:13:32.307Z,68.10
2023-05-18T11:15:59.533Z,68.00
2023-05-18T11:18:46.710Z,67.80
2023-05-18T11:21:32.953Z,67.90
2023-05-18T11:24:31.403Z,68.00
2023-05-18T11:27:20.373Z,68.00
2023-05-18T11:29:57.758Z,68.00
2023-05-18T11:32:33.181Z,68.60
2023-05-18T11:35:00.341Z,68.10
2023-05-18T11:37:39.605Z,68.30
2023-05-18T11:40:11.303Z,68.30
2023-05-18T11:42:38.810Z,68.30
2023-05-18T11:45:12.746Z,68.00
2023-05-18T11:47:41.510Z,67.80
2023-05-18T11:50:10.565Z,68.10
2023-05-18T11:52:51.750Z,68.00
2023-05-18T11:55:20.154Z,67.60
2023-05-18T11:57:53.467Z,67.70
2023-05-18T12:00:22.053Z,67.80
2023-05-18T12:02:49.390Z,67.70
2023-05-18T12:05:16.667Z,67.40
2023-05-18T12:07:52.915Z,67.30
2023-05-18T12:10:20.020Z,67.20
2023-05-18T12:12:53.709Z,67.20
2023-05-18T12:15:24.300Z,67.30
2023-05-18T12:17:51.463Z,67.30
2023-05-18T12:20:20.139Z,67.10
2023-05-18T12:22:53.268Z,67.40
2023-05-18T12:25:22.026Z,67.10
2023-05-18T12:27:49.426Z,67.20
2023-05-18T12:30:17.247Z,67.10
2023-05-18T12:32:54.989Z,66.90
2023-05-18T12:35:25.850Z,66.50
2023-05-18T12:37:52.816Z,66.50
2023-05-18T12:40:20.313Z,66.70
2023-05-18T12:42:58.315Z,66.80
2023-05-18T12:45:29.661Z,66.20
2023-05-18T12:47:57.389Z,65.70
2023-05-18T12:50:28.495Z,65.50
2023-05-18T12:52:56.705Z,64.60
2023-05-18T12:55:25.179Z,64.40
2023-05-18T12:58:08.657Z,64.50
2023-05-18T13:00:39.148Z,63.90
2023-05-18T13:03:16.054Z,63.80
2023-05-18T13:05:45.317Z,63.40
2023-05-18T13:08:18.244Z,63.50
2023-05-18T13:10:45.559Z,63.30
2023-05-18T13:13:15.452Z,63.70
2023-05-18T13:15:43.064Z,62.90
2023-05-18T13:18:10.929Z,63.00
2023-05-18T13:20:51.166Z,63.10
2023-05-18T13:23:22.696Z,63.20
2023-05-18T13:25:49.834Z,63.10
2023-05-18T13:28:20.501Z,63.10
2023-05-18T13:30:51.043Z,63.20
2023-05-18T13:33:21.668Z,63.00
2023-05-18T13:35:49.880Z,62.90
2023-05-18T13:38:17.050Z,62.50
2023-05-18T13:40:43.976Z,62.10
2023-05-18T13:43:13.549Z,61.80
2023-05-18T13:45:41.860Z,62.20
2023-05-18T13:48:10.692Z,61.10
2023-05-18T13:50:38.534Z,60.90
2023-05-18T13:53:06.815Z,61.00
2023-05-18T13:55:34.291Z,60.30
2023-05-18T13:58:01.419Z,59.90
2023-05-18T14:00:28.755Z,59.40
2023-05-18T14:02:59.216Z,59.90
2023-05-18T14:05:26.374Z,60.30
2023-05-18T14:07:53.524Z,60.30
2023-05-18T14:10:20.750Z,59.80
2023-05-18T14:12:48.027Z,60.10
2023-05-18T14:15:15.185Z,59.90
2023-05-18T14:17:43.054Z,60.20
2023-05-18T14:20:10.919Z,59.90
2023-05-18T14:22:37.780Z,59.60
2023-05-18T14:25:05.049Z,59.50
2023-05-18T14:27:32.358Z,59.20
2023-05-18T14:29:59.206Z,58.80
2023-05-18T14:32:26.249Z,58.60
2023-05-18T14:34:55.794Z,58.50
2023-05-18T14:37:25.138Z,58.20
2023-05-18T14:39:52.049Z,58.00
2023-05-18T14:42:19.033Z,57.90
2023-05-18T14:44:46.249Z,58.10
2023-05-18T14:47:13.147Z,58.20
2023-05-18T14:49:40.094Z,58.10
2023-05-18T14:52:07.173Z,58.10
2023-05-18T14:54:34.112Z,57.80
2023-05-18T14:57:01.408Z,57.50
2023-05-18T14:59:28.557Z,57.30
2023-05-18T15:01:55.641Z,57.10
2023-05-18T15:04:23.452Z,56.90
2023-05-18T15:06:50.488Z,56.40
2023-05-18T15:09:20.520Z,56.50
2023-05-18T15:11:47.793Z,56.70
2023-05-18T15:14:14.833Z,56.60
2023-05-18T15:16:42.859Z,56.80
2023-05-18T15:19:10.200Z,56.80
2023-05-18T15:21:37.069Z,56.60
2023-05-18T15:24:04.069Z,56.60
2023-05-18T15:26:33.797Z,56.60
2023-05-18T15:29:00.823Z,56.60
2023-05-18T15:31:27.878Z,56.60
2023-05-18T15:33:55.302Z,56.20
2023-05-18T15:36:22.252Z,56.00
2023-05-18T15:38:49.866Z,55.80
2023-05-18T15:41:16.951Z,55.90
2023-05-18T15:43:45.041Z,55.90
2023-05-18T15:46:12.128Z,55.50
2023-05-18T15:48:38.967Z,55.50
2023-05-18T15:51:06.079Z,55.60
2023-05-18T15:53:33.394Z,55.60
2023-05-18T15:56:00.583Z,55.40
2023-05-18T15:58:27.674Z,55.50
2023-05-18T16:00:54.719Z,55.60
2023-05-18T16:03:22.026Z,55.80
2023-05-18T16:05:49.278Z,56.70
2023-05-18T16:08:16.359Z,56.40
2023-05-18T16:10:43.490Z,56.50
2023-05-18T16:13:10.514Z,56.70
2023-05-18T16:15:37.483Z,56.80
2023-05-18T16:18:04.937Z,57.10
2023-05-18T16:20:32.497Z,57.40
2023-05-18T16:23:02.294Z,57.60
2023-05-18T16:25:29.401Z,58.20
2023-05-18T16:27:56.550Z,57.90
2023-05-18T16:30:26.204Z,57.90
2023-05-18T16:32:54.036Z,58.10
2023-05-18T16:35:21.242Z,58.20
2023-05-18T16:37:48.192Z,58.40
2023-05-18T16:40:15.686Z,58.50
2023-05-18T16:42:42.652Z,58.40
2023-05-18T16:45:09.957Z,58.40
2023-05-18T16:47:37.022Z,58.60
2023-05-18T16:50:04.490Z,58.80
2023-05-18T16:52:31.539Z,59.10
2023-05-18T16:54:58.697Z,59.30
2023-05-18T16:57:27.592Z,59.40
2023-05-18T16:59:54.740Z,59.50
2023-05-18T17:02:22.080Z,59.60
2023-05-18T17:04:51.898Z,59.60
2023-05-18T17:07:19.018Z,59.70
2023-05-18T17:09:45.940Z,59.90
2023-05-18T17:12:13.024Z,60.00
2023-05-18T17:14:39.991Z,60.00
2023-05-18T17:17:07.717Z,60.10
2023-05-18T17:19:39.385Z,60.10
2023-05-18T17:22:06.388Z,60.20
2023-05-18T17:24:33.486Z,60.50
2023-05-18T17:27:00.327Z,60.80
2023-05-18T17:29:27.545Z,61.10
2023-05-18T17:31:54.590Z,61.40
2023-05-18T17:34:22.353Z,61.50
2023-05-18T17:36:49.717Z,61.70
2023-05-18T17:39:16.857Z,62.00
2023-05-18T17:41:44.346Z,62.80
2023-05-18T17:44:14.537Z,62.30
2023-05-18T17:46:41.889Z,62.50
2023-05-18T17:49:09.246Z,62.80
2023-05-18T17:51:39.108Z,63.00
2023-05-18T17:54:06.192Z,63.20
2023-05-18T17:56:34.452Z,63.30
2023-05-18T17:59:01.396Z,63.60
2023-05-18T18:01:28.794Z,63.60
2023-05-18T18:03:56.766Z,63.70
2023-05-18T18:06:23.839Z,64.00
2023-05-18T18:08:51.593Z,64.10
2023-05-18T18:11:27.287Z,64.10
2023-05-18T18:13:54.503Z,64.30
2023-05-18T18:16:21.900Z,64.10
2023-05-18T18:18:49.055Z,64.00
2023-05-18T18:21:16.333Z,64.50
2023-05-18T18:23:43.431Z,63.80
2023-05-18T18:26:10.553Z,63.80
2023-05-18T18:28:37.835Z,63.80
2023-05-18T18:31:04.781Z,63.90
2023-05-18T18:33:32.885Z,63.80
2023-05-18T18:36:00.011Z,64.00
2023-05-18T18:38:29.580Z,64.20
2023-05-18T18:41:01.745Z,64.40
2023-05-18T18:43:28.903Z,64.60
2023-05-18T18:45:57.256Z,64.70
2023-05-18T18:48:24.708Z,64.80
2023-05-18T18:50:51.591Z,65.50
2023-05-18T18:53:18.779Z,65.20
2023-05-18T18:55:45.619Z,65.30
2023-05-18T18:58:12.395Z,65.70
2023-05-18T19:00:41.910Z,65.90
2023-05-18T19:03:14.540Z,66.10
2023-05-18T19:05:42.012Z,66.30
2023-05-18T19:08:09.036Z,66.50
2023-05-18T19:10:36.071Z,66.60
2023-05-18T19:13:05.398Z,66.70
2023-05-18T19:15:36.367Z,67.00
2023-05-18T19:18:04.146Z,67.30
2023-05-18T19:20:31.058Z,68.00
2023-05-18T19:22:58.241Z,67.50
2023-05-18T19:25:27.995Z,67.80
2023-05-18T19:27:55.125Z,68.00
2023-05-18T19:30:22.409Z,68.10
2023-05-18T19:32:50.239Z,68.20
2023-05-18T19:35:19.741Z,68.40
2023-05-18T19:37:50.237Z,68.60
2023-05-18T19:40:17.347Z,68.90
2023-05-18T19:42:44.425Z,69.80
2023-05-18T19:45:11.352Z,69.30
2023-05-18T19:47:38.504Z,69.50
2023-05-18T19:50:06.619Z,69.70
2023-05-18T19:52:33.871Z,70.50
2023-05-18T19:55:01.952Z,70.10
2023-05-18T19:57:29.197Z,70.30
2023-05-18T19:59:57.372Z,70.50
2023-05-18T20:02:24.706Z,70.60
2023-05-18T20:04:53.374Z,70.70
2023-05-18T20:07:20.851Z,70.80
2023-05-18T20:09:54.055Z,70.90
2023-05-18T20:12:21.453Z,71.20
2023-05-18T20:14:48.766Z,71.30
2023-05-18T20:17:16.785Z,71.30
2023-05-18T20:19:50.163Z,71.50
2023-05-18T20:22:30.493Z,71.60
2023-05-18T20:25:06.720Z,71.80
2023-05-18T20:27:33.836Z,71.90
2023-05-18T20:30:03.771Z,72.00
2023-05-18T20:32:32.821Z,72.20
2023-05-18T20:35:08.561Z,72.30
2023-05-18T20:37:35.566Z,72.50
2023-05-18T20:40:08.422Z,72.60
2023-05-18T20:42:40.600Z,72.70
2023-05-18T20:45:11.064Z,72.90
2023-05-18T20:47:37.979Z,72.90
2023-05-18T20:50:05.358Z,73.00
2023-05-18T20:52:32.298Z,73.20
2023-05-18T20:54:59.475Z,73.40
2023-05-18T20:57:28.469Z,73.40
2023-05-18T20:59:55.636Z,73.50
2023-05-18T21:02:22.814Z,73.60
2023-05-18T21:04:49.854Z,73.80
2023-05-18T21:07:18.035Z,74.10
2023-05-18T21:09:45.051Z,74.20
2023-05-18T21:12:11.944Z,74.40
2023-05-18T21:14:40.470Z,74.60
2023-05-18T21:17:07.545Z,74.70
2023-05-18T21:19:34.695Z,74.80
2023-05-18T21:22:01.898Z,75.00
2023-05-18T21:24:29.008Z,75.10
2023-05-18T21:26:56.299Z,75.40
2023-05-18T21:29:23.192Z,75.50
2023-05-18T21:31:50.353Z,75.60
2023-05-18T21:34:17.509Z,75.70
2023-05-18T21:36:44.320Z,75.80
2023-05-18T21:39:11.229Z,75.90
2023-05-18T21:41:42.452Z,76.00
2023-05-18T21:44:09.518Z,76.10
2023-05-18T21:46:37.006Z,76.20
2023-05-18T21:49:07.243Z,76.20
2023-05-18T21:51:34.474Z,76.40
2023-05-18T21:54:01.508Z,76.40
2023-05-18T21:56:28.727Z,76.50
2023-05-18T21:58:56.351Z,77.20
2023-05-18T22:01:24.109Z,76.70
2023-05-18T22:03:51.087Z,76.80
2023-05-18T22:06:21.135Z,76.90
2023-05-18T22:08:48.210Z,77.00
2023-05-18T22:11:15.112Z,77.20
2023-05-18T22:13:42.050Z,77.30
2023-05-18T22:16:11.971Z,77.50
2023-05-18T22:18:39.052Z,77.70
2023-05-18T22:21:16.354Z,77.80
2023-05-18T22:23:43.369Z,78.10
2023-05-18T22:26:13.661Z,78.10
2023-05-18T22:28:42.333Z,78.30
2023-05-18T22:31:09.503Z,78.40
2023-05-18T22:33:36.524Z,78.50
2023-05-18T22:36:04.707Z,78.70
2023-05-18T22:38:31.558Z,79.00
2023-05-18T22:40:58.380Z,79.20
2023-05-18T22:43:26.191Z,79.30
2023-05-18T22:45:53.142Z,79.50
2023-05-18T22:48:20.145Z,79.60
2023-05-18T22:50:47.102Z,79.80
2023-05-18T22:53:14.016Z,79.80
2023-05-18T22:55:41.250Z,80.00
2023-05-18T22:58:08.419Z,80.30
2023-05-18T23:00:35.408Z,80.40
2023-05-18T23:03:05.225Z,80.50
2023-05-18T23:05:32.827Z,80.70
2023-05-18T23:07:59.986Z,80.90
2023-05-18T23:10:26.995Z,81.10
2023-05-18T23:12:55.688Z,81.30
2023-05-18T23:15:23.084Z,81.40
2023-05-18T23:17:50.273Z,81.50
2023-05-18T23:20:17.281Z,81.60
2023-05-18T23:22:44.647Z,82.00
2023-05-18T23:25:11.497Z,82.20
2023-05-18T23:27:38.423Z,82.40
2023-05-18T23:30:06.125Z,82.80
2023-05-18T23:32:33.535Z,83.10
2023-05-18T23:35:00.866Z,83.30
2023-05-18T23:37:27.727Z,83.50
2023-05-18T23:39:54.570Z,83.60
2023-05-18T23:42:21.880Z,83.70
2023-05-18T23:44:48.988Z,83.60
2023-05-18T23:47:16.667Z,83.70
2023-05-18T23:49:49.694Z,83.80
2023-05-18T23:52:16.690Z,84.00
2023-05-18T23:54:45.646Z,83.90
2023-05-18T23:57:12.791Z,83.90
2023-05-18T23:59:39.797Z,84.00
